Time;durP1;ratioP1;P1;durP2;ratioP2;P2;SDS_P1;SDS_P2;PMS_P1;PMS_P2;Temp;Humidity;BMP_temperature;BMP_pressure;BME280_temperature;BME280_humidity;BME280_pressure;Samples;Min_cycle;Max_cycle;Signal;HPM_P1;HPM_P2
2023/06/01 00:02:07;;;;;;;9.32;5.68;;;19.50;60.60;;;;;;4997985;28;20027;-63
2023/06/01 00:04:34;;;;;;;9.25;5.13;;;19.50;60.70;;;;;;4998175;28;20388;-63
2023/06/01 00:07:01;;;;;;;9.18;5.25;;;19.40;60.80;;;;;;4997645;28;20026;-63
2023/06/01 00:09:27;;;;;;;10.32;5.50;;;19.40;60.80;;;;;;4997789;28;20023;-63
2023/06/01 00:11:53;;;;;;;7.93;5.72;;;19.40;61.10;;;;;;4997530;28;20080;-63
2023/06/01 00:14:19;;;;;;;9.15;5.95;;;19.30;61.30;;;;;;4997735;28;20030;-63
2023/06/01 00:16:46;;;;;;;10.23;6.13;;;19.20;61.40;;;;;;4997651;28;20028;-63
2023/06/01 00:19:11;;;;;;;9.90;5.72;;;19.20;62.00;;;;;;4997476;28;20029;-63
2023/06/01 00:21:37;;;;;;;9.70;6.47;;;19.10;61.90;;;;;;4997424;28;20018;-63
2023/06/01 00:24:04;;;;;;;10.55;6.00;;;19.10;62.20;;;;;;4997391;28;20080;-63
2023/06/01 00:26:31;;;;;;;9.35;5.43;;;19.00;62.40;;;;;;4997499;28;20034;-64
2023/06/01 00:28:58;;;;;;;7.97;5.57;;;19.00;62.30;;;;;;4997210;28;20073;-63
2023/06/01 00:31:25;;;;;;;11.52;5.93;;;19.00;62.40;;;;;;4997438;28;20031;-64
2023/06/01 00:33:52;;;;;;;8.85;5.78;;;18.90;62.50;;;;;;4997079;28;20474;-63
2023/06/01 00:36:18;;;;;;;9.10;5.63;;;18.90;62.60;;;;;;4997047;28;20023;-64
2023/06/01 00:38:44;;;;;;;9.35;5.70;;;18.80;62.60;;;;;;4996966;28;20031;-63
2023/06/01 00:41:10;;;;;;;8.57;5.68;;;18.80;62.70;;;;;;4996910;28;20105;-63
2023/06/01 00:43:36;;;;;;;9.80;5.85;;;18.80;62.80;;;;;;4997194;28;20022;-63
2023/06/01 00:46:02;;;;;;;9.57;5.57;;;18.80;62.80;;;;;;4997430;28;20022;-63
2023/06/01 00:48:29;;;;;;;12.85;6.47;;;18.80;62.90;;;;;;4996820;28;20022;-63
2023/06/01 00:50:57;;;;;;;13.40;5.75;;;18.80;62.90;;;;;;4996647;28;20118;-63
2023/06/01 00:53:24;;;;;;;9.85;5.60;;;18.70;62.90;;;;;;4997033;28;20034;-63
2023/06/01 00:55:50;;;;;;;9.05;5.50;;;18.70;63.00;;;;;;4996702;28;20030;-63
2023/06/01 00:58:16;;;;;;;8.98;5.70;;;18.70;63.00;;;;;;4996586;28;20073;-63
2023/06/01 01:00:42;;;;;;;8.50;5.60;;;18.70;63.20;;;;;;4996456;28;20499;-64
2023/06/01 01:03:09;;;;;;;9.65;5.45;;;18.60;63.20;;;;;;4996994;28;20113;-63
2023/06/01 01:05:37;;;;;;;8.13;5.43;;;18.60;63.30;;;;;;4996503;28;20023;-63
2023/06/01 01:08:16;;;;;;;10.52;5.68;;;18.60;63.40;;;;;;4996701;28;20056;-63
2023/06/01 01:11:07;;;;;;;9.55;5.78;;;18.60;63.50;;;;;;4997011;28;20411;-63
2023/06/01 01:13:47;;;;;;;10.32;5.80;;;18.60;64.10;;;;;;4996866;28;20034;-64
2023/06/01 01:16:16;;;;;;;8.45;5.80;;;18.50;63.90;;;;;;4996773;28;20041;-63
2023/06/01 01:18:56;;;;;;;9.50;6.03;;;18.40;63.90;;;;;;4996655;28;20028;-64
2023/06/01 01:21:29;;;;;;;10.30;5.80;;;18.40;64.30;;;;;;4996532;28;20018;-63
2023/06/01 01:24:31;;;;;;;10.98;5.75;;;18.30;64.30;;;;;;4996232;28;20032;-63
2023/06/01 01:27:10;;;;;;;10.05;6.10;;;18.30;64.90;;;;;;4991981;28;20321;-63
2023/06/01 01:29:37;;;;;;;9.50;6.07;;;18.20;64.50;;;;;;4996320;28;20105;-63
2023/06/01 01:32:07;;;;;;;8.90;6.07;;;18.20;64.50;;;;;;4996132;28;20085;-63
2023/06/01 01:34:35;;;;;;;9.23;6.10;;;18.10;64.60;;;;;;4996577;28;20085;-63
2023/06/01 01:37:01;;;;;;;8.43;5.32;;;18.10;64.80;;;;;;4995977;28;20041;-63
2023/06/01 01:39:27;;;;;;;12.70;6.38;;;18.10;64.90;;;;;;4995956;28;20080;-63
2023/06/01 01:41:53;;;;;;;9.50;6.22;;;18.00;65.00;;;;;;4996294;28;20391;-63
2023/06/01 01:44:20;;;;;;;10.50;6.40;;;18.00;65.20;;;;;;4996202;28;20117;-63
2023/06/01 01:47:09;;;;;;;9.00;5.88;;;18.00;65.70;;;;;;4996232;28;20026;-63
2023/06/01 01:49:42;;;;;;;9.63;6.15;;;17.90;66.20;;;;;;4995743;28;20060;-63
2023/06/01 01:52:14;;;;;;;10.25;6.75;;;17.90;65.60;;;;;;4996170;28;20026;-63
2023/06/01 01:54:45;;;;;;;11.20;6.85;;;17.90;66.10;;;;;;4996397;28;20022;-63
2023/06/01 01:57:14;;;;;;;11.13;6.03;;;17.90;66.00;;;;;;4995730;28;20058;-63
2023/06/01 01:59:42;;;;;;;10.02;6.15;;;17.80;66.10;;;;;;4995954;28;20019;-63
2023/06/01 02:02:09;;;;;;;10.30;6.32;;;17.70;66.20;;;;;;4996025;28;20026;-63
2023/06/01 02:04:40;;;;;;;11.82;7.05;;;17.70;66.30;;;;;;4995723;28;20049;-63
2023/06/01 02:07:06;;;;;;;11.35;7.35;;;17.70;66.70;;;;;;4995952;28;20045;-63
2023/06/01 02:09:32;;;;;;;11.27;7.05;;;17.70;66.80;;;;;;4995915;28;20034;-63
2023/06/01 02:11:58;;;;;;;11.07;6.75;;;17.60;66.80;;;;;;4995964;28;20030;-63
2023/06/01 02:14:24;;;;;;;9.98;6.45;;;17.60;66.80;;;;;;5000235;28;20026;-63
2023/06/01 02:16:50;;;;;;;8.80;6.38;;;17.60;66.70;;;;;;4999644;28;20073;-63
2023/06/01 02:19:17;;;;;;;10.20;6.78;;;17.60;66.90;;;;;;4999852;28;20033;-63
2023/06/01 02:21:43;;;;;;;11.20;7.03;;;17.50;66.80;;;;;;4999577;28;20026;-63
2023/06/01 02:24:09;;;;;;;9.27;6.32;;;17.50;66.80;;;;;;4999584;28;20018;-63
2023/06/01 02:26:35;;;;;;;11.02;6.93;;;17.50;66.90;;;;;;4999763;28;20031;-63
2023/06/01 02:29:02;;;;;;;11.23;7.38;;;17.50;67.10;;;;;;4999759;28;20073;-64
2023/06/01 02:31:28;;;;;;;10.15;6.47;;;17.50;67.20;;;;;;5000127;28;20034;-63
2023/06/01 02:33:55;;;;;;;11.70;6.65;;;17.50;67.20;;;;;;4999919;28;20084;-63
2023/06/01 02:36:21;;;;;;;8.95;5.95;;;17.40;67.30;;;;;;4999193;28;20113;-63
2023/06/01 02:38:47;;;;;;;10.82;6.63;;;17.40;67.30;;;;;;4999736;28;20046;-63
2023/06/01 02:41:13;;;;;;;10.23;6.32;;;17.40;67.30;;;;;;4999212;28;20085;-63
2023/06/01 02:43:39;;;;;;;10.65;6.40;;;17.40;67.20;;;;;;4999227;28;20034;-63
2023/06/01 02:46:05;;;;;;;11.30;6.70;;;17.40;67.20;;;;;;4999149;28;20030;-63
2023/06/01 02:48:31;;;;;;;9.50;6.85;;;17.40;67.20;;;;;;4999064;28;20101;-63
2023/06/01 02:50:57;;;;;;;9.90;6.75;;;17.40;67.20;;;;;;4998940;28;20104;-63
2023/06/01 02:53:26;;;;;;;10.88;6.60;;;17.30;67.30;;;;;;4999289;28;20056;-63
2023/06/01 02:55:53;;;;;;;11.05;6.85;;;17.40;67.30;;;;;;4999154;28;20031;-63
2023/06/01 02:58:19;;;;;;;10.05;6.70;;;17.30;67.30;;;;;;4998821;28;20360;-63
2023/06/01 03:00:46;;;;;;;9.30;6.03;;;17.30;67.40;;;;;;4998938;28;20026;-63
2023/06/01 03:03:12;;;;;;;11.20;7.10;;;17.30;67.30;;;;;;4998792;28;20022;-63
2023/06/01 03:05:38;;;;;;;9.80;6.80;;;17.20;67.50;;;;;;4999294;28;20333;-63
2023/06/01 03:08:06;;;;;;;14.27;7.60;;;17.20;67.50;;;;;;4998813;28;20026;-63
2023/06/01 03:10:32;;;;;;;10.57;7.18;;;17.20;67.80;;;;;;4998634;28;20030;-63
2023/06/01 03:12:58;;;;;;;12.02;7.25;;;17.20;67.70;;;;;;4998946;28;20037;-63
2023/06/01 03:15:24;;;;;;;12.40;7.10;;;17.20;67.90;;;;;;4998889;28;20034;-63
2023/06/01 03:17:50;;;;;;;12.48;6.80;;;17.20;67.90;;;;;;4998790;28;20408;-63
2023/06/01 03:20:16;;;;;;;11.40;7.18;;;17.10;67.90;;;;;;4999018;28;20467;-63
2023/06/01 03:22:46;;;;;;;12.88;6.85;;;17.10;68.00;;;;;;4998762;28;20023;-63
2023/06/01 03:25:12;;;;;;;11.07;7.10;;;17.10;68.00;;;;;;4998190;28;20026;-63
2023/06/01 03:27:39;;;;;;;12.15;7.47;;;17.10;68.10;;;;;;4998412;28;20030;-63
2023/06/01 03:30:10;;;;;;;10.20;6.93;;;17.10;68.20;;;;;;4998366;28;20030;-63
2023/06/01 03:32:43;;;;;;;16.10;7.43;;;17.10;68.30;;;;;;4998162;28;20121;-63
2023/06/01 03:35:11;;;;;;;12.18;7.28;;;17.10;68.30;;;;;;4998548;28;20041;-63
2023/06/01 03:37:40;;;;;;;11.43;7.32;;;17.00;68.40;;;;;;4998417;28;20045;-63
2023/06/01 03:40:10;;;;;;;9.48;6.65;;;17.10;68.40;;;;;;4998080;28;20093;-63
2023/06/01 03:42:44;;;;;;;12.65;7.57;;;17.10;68.30;;;;;;4998440;28;20049;-63
2023/06/01 03:45:12;;;;;;;13.45;7.20;;;17.10;68.20;;;;;;4998064;28;20040;-63
2023/06/01 03:47:39;;;;;;;11.93;7.60;;;17.20;68.20;;;;;;4997966;28;20026;-63
2023/06/01 03:50:07;;;;;;;12.75;7.53;;;17.20;68.20;;;;;;4997730;28;20054;-63
2023/06/01 03:52:34;;;;;;;12.35;7.55;;;17.20;68.20;;;;;;4997883;28;20067;-63
2023/06/01 03:55:02;;;;;;;13.48;8.27;;;17.30;68.30;;;;;;4997855;28;20026;-63
2023/06/01 03:57:28;;;;;;;13.15;7.70;;;17.30;68.70;;;;;;4997723;28;20034;-63
2023/06/01 03:59:54;;;;;;;11.73;7.95;;;17.30;68.60;;;;;;4997754;28;20026;-63
2023/06/01 04:02:21;;;;;;;9.55;6.95;;;17.30;68.40;;;;;;4997714;28;20041;-63
2023/06/01 04:04:48;;;;;;;10.73;7.35;;;17.30;68.60;;;;;;4996731;28;20031;-63
2023/06/01 04:07:18;;;;;;;11.43;7.15;;;17.30;68.30;;;;;;4997972;28;20036;-63
2023/06/01 04:09:48;;;;;;;12.98;7.18;;;17.30;68.20;;;;;;4997551;28;20034;-63
2023/06/01 04:12:15;;;;;;;10.02;6.75;;;17.40;67.90;;;;;;4998121;28;20343;-63
2023/06/01 04:14:41;;;;;;;13.23;7.60;;;17.40;67.70;;;;;;4997760;28;20049;-63
2023/06/01 04:17:07;;;;;;;11.02;7.30;;;17.60;67.90;;;;;;4997441;28;20109;-63
2023/06/01 04:19:34;;;;;;;14.27;8.20;;;17.60;67.90;;;;;;4997689;28;20105;-63
2023/06/01 04:22:00;;;;;;;12.15;7.82;;;17.80;67.70;;;;;;4997435;28;20027;-63
2023/06/01 04:24:27;;;;;;;11.10;7.45;;;17.90;67.60;;;;;;4997647;28;20050;-63
2023/06/01 04:26:53;;;;;;;10.48;6.90;;;18.10;67.10;;;;;;4997559;28;20034;-63
2023/06/01 04:29:19;;;;;;;10.88;7.10;;;18.30;66.70;;;;;;4997425;28;20030;-63
2023/06/01 04:31:45;;;;;;;11.93;6.88;;;18.50;66.20;;;;;;4997223;28;20027;-63
2023/06/01 04:34:12;;;;;;;9.88;7.00;;;18.80;65.60;;;;;;4997198;28;20455;-63
2023/06/01 04:36:39;;;;;;;10.27;6.70;;;18.90;65.20;;;;;;4995902;28;20080;-63
2023/06/01 04:39:08;;;;;;;11.10;7.20;;;19.20;64.70;;;;;;4996969;28;20149;-63
2023/06/01 04:41:35;;;;;;;10.15;6.97;;;19.50;64.40;;;;;;4997279;28;20031;-63
2023/06/01 04:44:05;;;;;;;9.75;6.78;;;19.70;64.00;;;;;;4996023;28;20061;-63
2023/06/01 04:46:32;;;;;;;12.00;7.43;;;20.10;63.50;;;;;;4997177;28;20027;-63
2023/06/01 04:48:59;;;;;;;9.77;6.70;;;20.60;62.90;;;;;;4996681;28;20439;-63
2023/06/01 04:51:26;;;;;;;9.23;6.43;;;21.40;62.20;;;;;;4995837;28;20453;-63
2023/06/01 04:53:53;;;;;;;13.70;6.97;;;22.40;60.70;;;;;;4997061;28;20038;-63
2023/06/01 04:56:27;;;;;;;12.00;6.95;;;23.40;59.00;;;;;;4996925;28;20022;-64
2023/06/01 04:58:54;;;;;;;;;;;24.50;57.20;;;;;;4997498;28;20030;-64
2023/06/01 05:01:29;;;;;;;7.97;5.38;;;25.60;56.20;;;;;;4996959;28;19945;-64
2023/06/01 05:03:55;;;;;;;9.00;6.03;;;26.50;53.70;;;;;;4996898;28;20026;-64
2023/06/01 05:06:22;;;;;;;9.82;6.13;;;27.40;52.10;;;;;;4996857;28;20041;-64
2023/06/01 05:08:48;;;;;;;7.78;5.70;;;28.20;50.50;;;;;;4996697;28;20030;-64
2023/06/01 05:11:14;;;;;;;10.07;6.22;;;28.90;49.10;;;;;;4997016;28;20062;-64
2023/06/01 05:13:40;;;;;;;10.75;5.68;;;29.60;47.80;;;;;;4996958;28;20108;-64
2023/06/01 05:16:08;;;;;;;9.82;5.53;;;30.30;46.60;;;;;;4996331;28;20030;-64
2023/06/01 05:18:35;;;;;;;10.60;6.25;;;30.90;45.60;;;;;;4996303;28;20077;-64
2023/06/01 05:21:02;;;;;;;10.85;5.93;;;31.60;44.30;;;;;;4996268;28;20038;-64
2023/06/01 05:23:28;;;;;;;8.57;5.75;;;32.20;43.50;;;;;;4995376;28;20368;-64
2023/06/01 05:26:01;;;;;;;9.10;5.80;;;32.70;42.80;;;;;;4996232;28;20026;-64
2023/06/01 05:28:31;;;;;;;9.98;6.65;;;33.40;41.80;;;;;;4996167;28;20034;-64
2023/06/01 05:30:57;;;;;;;12.73;5.65;;;34.10;40.50;;;;;;4996194;28;20511;-64
2023/06/01 05:33:23;;;;;;;8.35;5.70;;;34.70;39.60;;;;;;4996371;28;20074;-64
2023/06/01 05:35:49;;;;;;;7.50;5.00;;;35.20;38.40;;;;;;4996128;28;20031;-64
2023/06/01 05:38:15;;;;;;;9.40;5.53;;;35.70;37.70;;;;;;4995904;28;20061;-64
2023/06/01 05:40:41;;;;;;;7.50;5.32;;;36.20;36.90;;;;;;4996071;28;20076;-64
2023/06/01 05:43:07;;;;;;;9.68;6.07;;;36.70;36.30;;;;;;4996230;28;20068;-64
2023/06/01 05:45:34;;;;;;;8.10;5.38;;;37.20;35.30;;;;;;4996480;28;20022;-64
2023/06/01 05:48:00;;;;;;;9.38;5.00;;;37.60;34.40;;;;;;4995620;28;20022;-64
2023/06/01 05:50:26;;;;;;;7.03;4.93;;;37.90;33.50;;;;;;4995850;28;20060;-64
2023/06/01 05:52:52;;;;;;;7.82;5.07;;;38.20;33.30;;;;;;4996402;28;20320;-64
2023/06/01 05:55:18;;;;;;;7.10;5.05;;;38.50;33.00;;;;;;4996098;28;20019;-64
2023/06/01 05:57:48;;;;;;;8.18;5.38;;;38.90;32.50;;;;;;4995706;28;20047;-64
2023/06/01 06:00:15;;;;;;;8.40;4.88;;;39.40;32.00;;;;;;4995930;28;20057;-64
2023/06/01 06:02:43;;;;;;;7.65;4.35;;;39.90;31.40;;;;;;4995707;28;20062;-65
2023/06/01 06:05:09;;;;;;;8.52;5.50;;;40.20;30.50;;;;;;4995201;28;20018;-65
2023/06/01 06:07:35;;;;;;;7.80;5.00;;;40.60;30.10;;;;;;4996543;28;20379;-65
2023/06/01 06:10:01;;;;;;;8.00;5.30;;;40.90;29.50;;;;;;4995726;28;20026;-64
2023/06/01 06:12:27;;;;;;;6.88;4.93;;;41.20;29.30;;;;;;4995730;28;20052;-64
2023/06/01 06:14:53;;;;;;;7.15;4.80;;;41.60;28.80;;;;;;4996187;28;20121;-64
2023/06/01 06:17:19;;;;;;;7.53;4.95;;;42.00;28.50;;;;;;4995824;28;20488;-64
2023/06/01 06:19:47;;;;;;;9.13;5.40;;;42.40;28.20;;;;;;4994482;28;20022;-65
2023/06/01 06:22:13;;;;;;;7.72;5.07;;;42.80;27.70;;;;;;4995571;28;20542;-65
2023/06/01 06:24:39;;;;;;;6.88;5.07;;;43.20;26.90;;;;;;4993904;28;20018;-65
2023/06/01 06:27:06;;;;;;;8.20;5.03;;;43.50;26.50;;;;;;4995822;28;20053;-65
2023/06/01 06:29:32;;;;;;;6.70;4.65;;;43.90;25.90;;;;;;4994593;28;20072;-64
2023/06/01 06:31:58;;;;;;;6.28;4.65;;;44.20;25.20;;;;;;4995174;28;20026;-64
2023/06/01 06:34:24;;;;;;;8.35;4.78;;;44.50;24.80;;;;;;4995546;28;20026;-64
2023/06/01 06:36:52;;;;;;;8.50;5.03;;;44.70;24.30;;;;;;4995918;28;20101;-64
2023/06/01 06:39:19;;;;;;;7.65;5.07;;;44.80;24.00;;;;;;4995605;28;20050;-64
2023/06/01 06:41:45;;;;;;;6.97;5.13;;;44.30;24.00;;;;;;4994480;28;20108;-65
2023/06/01 06:44:11;;;;;;;8.02;5.20;;;43.40;24.40;;;;;;4995412;28;20046;-65
2023/06/01 06:46:36;;;;;;;7.25;4.85;;;42.20;25.10;;;;;;4995692;28;20030;-64
2023/06/01 06:49:02;;;;;;;8.68;5.55;;;41.00;26.00;;;;;;4994990;28;20423;-64
2023/06/01 06:51:28;;;;;;;8.27;5.28;;;39.70;27.10;;;;;;4995662;28;20030;-64
2023/06/01 06:53:54;;;;;;;8.52;5.60;;;38.60;28.10;;;;;;4995617;28;20368;-64
2023/06/01 06:56:20;;;;;;;9.05;5.68;;;37.70;29.10;;;;;;4995527;28;20018;-64
2023/06/01 06:58:46;;;;;;;8.05;5.13;;;36.90;29.90;;;;;;4994529;28;20129;-64
2023/06/01 07:01:12;;;;;;;5.57;4.43;;;36.20;30.80;;;;;;4998583;28;20475;-64
2023/06/01 07:03:40;;;;;;;8.40;5.20;;;35.60;31.60;;;;;;4998805;28;20325;-64
2023/06/01 07:06:06;;;;;;;10.63;5.40;;;35.10;32.10;;;;;;4999337;28;20481;-64
2023/06/01 07:08:34;;;;;;;9.27;5.70;;;34.70;32.60;;;;;;4998658;28;20026;-64
2023/06/01 07:11:00;;;;;;;7.32;5.03;;;34.40;32.80;;;;;;4998984;28;20065;-64
2023/06/01 07:13:26;;;;;;;7.80;5.13;;;34.10;33.00;;;;;;4998743;28;20113;-64
2023/06/01 07:15:55;;;;;;;7.75;5.90;;;33.90;33.50;;;;;;4999175;28;20050;-64
2023/06/01 07:18:21;;;;;;;8.32;6.10;;;33.80;33.60;;;;;;4998447;28;20093;-64
2023/06/01 07:20:47;;;;;;;9.13;5.10;;;33.70;33.70;;;;;;4999110;28;20019;-64
2023/06/01 07:23:15;;;;;;;8.27;5.70;;;33.50;33.90;;;;;;4999017;28;20108;-64
2023/06/01 07:25:41;;;;;;;7.82;5.75;;;33.40;34.00;;;;;;4998763;28;20458;-64
2023/06/01 07:28:08;;;;;;;7.30;5.00;;;33.30;34.20;;;;;;4998422;28;20030;-64
2023/06/01 07:30:35;;;;;;;7.95;5.78;;;33.20;34.40;;;;;;4998267;28;20503;-64
2023/06/01 07:33:02;;;;;;;11.38;5.90;;;33.10;34.60;;;;;;4998842;28;20030;-64
2023/06/01 07:35:29;;;;;;;8.15;5.80;;;32.90;34.80;;;;;;4998563;28;20014;-64
2023/06/01 07:37:55;;;;;;;7.55;5.50;;;32.80;35.10;;;;;;4998186;28;20368;-64
2023/06/01 07:40:21;;;;;;;8.85;6.40;;;32.80;35.20;;;;;;4998438;28;20026;-64
2023/06/01 07:42:47;;;;;;;8.07;5.53;;;32.90;34.90;;;;;;4998111;28;20410;-64
2023/06/01 07:45:13;;;;;;;8.73;4.97;;;32.80;34.40;;;;;;4998613;28;20098;-64
2023/06/01 07:47:39;;;;;;;8.30;5.15;;;32.70;34.50;;;;;;4998111;28;20041;-64
2023/06/01 07:50:06;;;;;;;7.32;5.53;;;32.60;34.70;;;;;;4998027;28;20053;-64
2023/06/01 07:52:32;;;;;;;8.90;5.60;;;32.60;34.90;;;;;;4997942;28;20038;-64
2023/06/01 07:54:58;;;;;;;7.78;5.25;;;32.60;34.70;;;;;;4997912;28;20062;-64
2023/06/01 07:57:25;;;;;;;7.50;5.13;;;32.60;34.60;;;;;;4998086;28;20030;-64
2023/06/01 07:59:51;;;;;;;7.78;5.50;;;32.60;34.50;;;;;;4997799;28;20026;-64
2023/06/01 08:02:16;;;;;;;9.85;5.85;;;32.60;34.40;;;;;;4997771;28;20018;-64
2023/06/01 08:04:44;;;;;;;8.25;5.00;;;32.30;34.70;;;;;;4998296;28;20344;-64
2023/06/01 08:07:12;;;;;;;9.45;6.00;;;32.10;34.90;;;;;;4997706;28;20522;-64
2023/06/01 08:09:38;;;;;;;8.88;6.00;;;31.90;34.90;;;;;;4997043;28;20049;-64
2023/06/01 08:12:05;;;;;;;7.38;5.00;;;31.70;34.90;;;;;;4997677;28;20407;-64
2023/06/01 08:14:33;;;;;;;9.85;6.38;;;31.50;35.30;;;;;;4997484;28;20038;-64
2023/06/01 08:17:01;;;;;;;7.75;5.28;;;31.40;35.00;;;;;;4996558;28;20030;-64
2023/06/01 08:19:28;;;;;;;8.68;5.72;;;31.30;35.30;;;;;;4997392;28;20030;-64
2023/06/01 08:21:54;;;;;;;10.15;5.53;;;31.20;35.40;;;;;;4997668;28;20033;-64
2023/06/01 08:24:22;;;;;;;11.15;5.82;;;31.20;35.50;;;;;;4997374;28;20062;-64
2023/06/01 08:26:48;;;;;;;9.85;5.80;;;31.20;35.20;;;;;;4996384;28;20454;-63
2023/06/01 08:29:14;;;;;;;7.93;5.85;;;30.80;35.40;;;;;;4997442;28;20107;-64
2023/06/01 08:31:40;;;;;;;9.88;6.35;;;30.60;35.90;;;;;;4997178;28;20050;-65
2023/06/01 08:34:07;;;;;;;9.25;6.20;;;30.50;35.40;;;;;;4997581;28;20112;-64
2023/06/01 08:36:33;;;;;;;9.52;6.55;;;30.20;35.80;;;;;;4997600;28;20026;-64
2023/06/01 08:38:59;;;;;;;10.10;6.40;;;30.00;36.40;;;;;;4996165;28;20399;-64
2023/06/01 08:41:50;;;;;;;11.38;6.60;;;29.90;36.60;;;;;;4996944;28;20129;-64
2023/06/01 08:44:20;;;;;;;10.57;5.95;;;29.90;36.50;;;;;;4997296;28;20062;-64
2023/06/01 08:46:46;;;;;;;8.90;5.95;;;30.00;36.80;;;;;;4996897;28;20367;-64
2023/06/01 08:49:13;;;;;;;9.93;6.03;;;30.20;36.70;;;;;;4996649;28;20177;-64
2023/06/01 08:51:42;;;;;;;8.57;5.65;;;30.30;36.70;;;;;;4996912;28;20037;-64
2023/06/01 08:54:09;;;;;;;9.32;5.78;;;30.40;36.60;;;;;;4997077;28;20026;-64
2023/06/01 08:56:41;;;;;;;8.15;5.72;;;30.40;36.60;;;;;;4996633;28;20081;-64
2023/06/01 08:59:10;;;;;;;8.65;5.75;;;30.40;36.50;;;;;;4996931;28;20034;-64
2023/06/01 09:01:38;;;;;;;7.65;5.60;;;30.40;36.60;;;;;;4997172;28;20030;-64
2023/06/01 09:04:04;;;;;;;9.25;5.70;;;30.50;36.50;;;;;;4996616;28;20436;-64
2023/06/01 09:06:30;;;;;;;9.98;6.25;;;30.70;36.10;;;;;;4996816;28;20065;-65
2023/06/01 09:08:57;;;;;;;11.70;7.00;;;30.40;36.00;;;;;;4996722;28;20096;-65
2023/06/01 09:11:26;;;;;;;8.80;5.93;;;30.00;36.90;;;;;;4996519;28;20076;-64
2023/06/01 09:13:52;;;;;;;8.93;6.00;;;29.80;36.70;;;;;;4996673;28;20053;-64
2023/06/01 09:16:18;;;;;;;8.68;5.57;;;29.70;36.90;;;;;;4996328;28;20340;-64
2023/06/01 09:18:55;;;;;;;9.23;6.30;;;29.70;37.00;;;;;;4996311;28;20030;-64
2023/06/01 09:21:21;;;;;;;7.50;5.40;;;29.60;37.00;;;;;;4996628;28;20035;-64
2023/06/01 09:23:47;;;;;;;9.20;5.95;;;29.70;36.90;;;;;;4995636;28;20026;-64
2023/06/01 09:26:14;;;;;;;9.38;6.15;;;29.70;37.10;;;;;;4996214;28;20447;-64
2023/06/01 09:28:55;;;;;;;9.43;5.88;;;29.80;37.20;;;;;;4995678;28;20381;-64
2023/06/01 09:31:42;;;;;;;12.20;6.57;;;29.80;37.00;;;;;;4995157;28;20038;-64
2023/06/01 09:34:11;;;;;;;10.93;6.07;;;29.90;37.00;;;;;;4996143;28;20041;-64
2023/06/01 09:36:37;;;;;;;11.38;6.25;;;29.70;36.40;;;;;;4995995;28;20034;-64
2023/06/01 09:39:08;;;;;;;9.60;6.25;;;29.60;36.30;;;;;;4996207;28;20037;-64
2023/06/01 09:41:58;;;;;;;10.95;6.97;;;29.50;36.50;;;;;;4996271;28;20042;-64
2023/06/01 09:44:25;;;;;;;10.55;6.53;;;29.40;36.40;;;;;;4995018;28;20031;-64
2023/06/01 09:47:03;;;;;;;11.35;6.57;;;29.20;36.90;;;;;;4995952;28;20081;-64
2023/06/01 09:49:38;;;;;;;10.18;6.05;;;29.20;36.90;;;;;;4995932;28;20062;-64
2023/06/01 09:52:04;;;;;;;11.60;6.35;;;29.30;37.40;;;;;;4995898;28;20065;-64
2023/06/01 09:54:34;;;;;;;8.70;5.53;;;29.20;37.50;;;;;;4995783;28;20467;-64
2023/06/01 09:57:03;;;;;;;9.45;5.63;;;29.30;37.80;;;;;;4996046;28;20113;-64
2023/06/01 09:59:30;;;;;;;11.48;6.97;;;29.40;37.60;;;;;;4996024;28;20053;-64
2023/06/01 10:01:58;;;;;;;10.63;5.75;;;29.50;37.30;;;;;;4996027;28;20165;-64
2023/06/01 10:04:26;;;;;;;8.73;5.82;;;29.50;37.30;;;;;;4995979;28;20030;-64
2023/06/01 10:06:56;;;;;;;10.30;6.50;;;29.50;37.20;;;;;;4995745;28;20479;-64
2023/06/01 10:09:24;;;;;;;11.40;6.63;;;29.60;37.30;;;;;;4996179;28;20030;-64
2023/06/01 10:11:54;;;;;;;9.52;6.00;;;29.60;37.10;;;;;;4995625;28;20102;-64
2023/06/01 10:14:21;;;;;;;10.05;6.88;;;29.70;37.00;;;;;;4995946;28;20027;-64
2023/06/01 10:16:52;;;;;;;9.57;6.32;;;29.70;37.00;;;;;;4995610;28;20108;-64
2023/06/01 10:19:20;;;;;;;9.57;6.10;;;29.80;37.50;;;;;;4994624;28;20026;-64
2023/06/01 10:21:47;;;;;;;8.98;5.88;;;29.90;37.50;;;;;;4995587;28;20022;-64
2023/06/01 10:24:16;;;;;;;9.13;6.07;;;30.00;37.30;;;;;;4995500;28;20030;-64
2023/06/01 10:26:54;;;;;;;10.13;7.05;;;30.00;37.20;;;;;;4996061;28;20490;-64
2023/06/01 10:29:21;;;;;;;11.10;7.07;;;30.00;37.00;;;;;;4995783;28;20035;-64
2023/06/01 10:31:46;;;;;;;9.88;6.55;;;29.90;37.00;;;;;;4994875;28;20027;-64
2023/06/01 10:34:13;;;;;;;9.38;6.40;;;29.90;37.10;;;;;;4997664;28;20026;-64
2023/06/01 10:36:54;;;;;;;9.00;6.47;;;29.90;37.20;;;;;;4999571;28;20022;-64
2023/06/01 10:39:26;;;;;;;11.30;7.18;;;29.90;37.40;;;;;;4999550;28;20045;-64
2023/06/01 10:41:54;;;;;;;11.18;6.43;;;29.80;37.60;;;;;;4999280;28;20022;-64
2023/06/01 10:44:41;;;;;;;10.60;6.22;;;29.80;37.80;;;;;;4999534;28;20046;-64
2023/06/01 10:47:13;;;;;;;10.23;6.90;;;29.80;38.20;;;;;;4999436;28;20109;-64
2023/06/01 10:49:51;;;;;;;10.90;6.38;;;29.90;38.00;;;;;;4998961;28;20129;-64
2023/06/01 10:52:32;;;;;;;10.32;6.68;;;29.90;37.40;;;;;;4999607;28;20030;-64
2023/06/01 10:55:10;;;;;;;9.75;6.40;;;29.80;37.30;;;;;;4998128;28;20340;-64
2023/06/01 10:58:18;;;;;;;10.50;6.50;;;29.70;37.50;;;;;;4998938;28;20402;-64
2023/06/01 11:00:45;;;;;;;10.85;7.22;;;29.80;38.00;;;;;;4978991;28;20034;-64
2023/06/01 11:03:11;;;;;;;8.88;6.47;;;29.70;37.80;;;;;;5262614;23;20058;-63
2023/06/01 11:05:47;;;;;;;11.02;6.78;;;29.60;38.00;;;;;;5014484;28;20046;-63
2023/06/01 11:08:29;;;;;;;8.63;6.18;;;29.60;38.20;;;;;;4998789;28;20359;-63
2023/06/01 11:11:05;;;;;;;12.27;6.60;;;29.60;37.90;;;;;;4999087;28;20053;-63
2023/06/01 11:13:39;;;;;;;10.88;7.18;;;29.60;37.80;;;;;;4998637;28;20038;-63
2023/06/01 11:16:12;;;;;;;10.90;7.25;;;29.60;37.80;;;;;;4999368;28;20045;-63
2023/06/01 11:18:41;;;;;;;10.43;6.80;;;29.70;37.60;;;;;;4998621;28;20018;-63
2023/06/01 11:21:36;;;;;;;11.45;7.40;;;29.60;37.60;;;;;;4998776;28;20160;-63
2023/06/01 11:24:13;;;;;;;11.20;7.55;;;29.50;37.50;;;;;;4998105;28;20078;-63
2023/06/01 11:26:41;;;;;;;11.73;7.70;;;29.40;37.70;;;;;;4997561;28;20039;-63
2023/06/01 11:29:19;;;;;;;9.18;6.53;;;29.40;37.80;;;;;;4998444;28;20069;-63
2023/06/01 11:31:52;;;;;;;10.57;7.40;;;29.40;37.90;;;;;;5012929;28;20087;-63
2023/06/01 11:34:19;;;;;;;13.73;7.95;;;29.50;38.00;;;;;;4998698;28;20045;-62
2023/06/01 11:36:49;;;;;;;12.38;7.30;;;29.50;38.30;;;;;;4998127;28;20117;-63
2023/06/01 11:39:20;;;;;;;12.55;7.32;;;29.50;38.50;;;;;;4998203;28;20117;-63
2023/06/01 11:41:48;;;;;;;9.63;6.88;;;29.50;38.60;;;;;;4998601;28;20050;-63
2023/06/01 11:44:14;;;;;;;10.63;7.13;;;29.50;38.60;;;;;;4998597;28;20039;-63
2023/06/01 11:46:55;;;;;;;10.55;6.88;;;29.50;38.60;;;;;;4996460;28;20026;-63
2023/06/01 11:49:22;;;;;;;10.65;7.38;;;29.50;38.40;;;;;;4998038;28;20069;-63
2023/06/01 11:51:48;;;;;;;9.82;7.35;;;29.60;37.90;;;;;;4998408;28;20030;-63
2023/06/01 11:54:14;;;;;;;10.32;7.38;;;29.50;37.70;;;;;;4999179;28;20037;-63
2023/06/01 11:56:41;;;;;;;12.60;7.03;;;29.40;37.90;;;;;;4998844;28;20027;-64
2023/06/01 11:59:11;;;;;;;10.93;7.60;;;29.30;38.10;;;;;;4998129;28;20148;-63
2023/06/01 12:01:43;;;;;;;11.40;6.88;;;29.30;38.10;;;;;;4998014;28;20474;-63
2023/06/01 12:04:13;;;;;;;10.60;7.00;;;29.30;38.50;;;;;;4997505;28;20137;-63
2023/06/01 12:06:39;;;;;;;9.57;6.55;;;29.40;38.60;;;;;;4998023;28;20054;-63
2023/06/01 12:09:06;;;;;;;11.02;6.93;;;29.40;38.80;;;;;;4997935;28;20038;-63
2023/06/01 12:11:32;;;;;;;10.27;7.10;;;29.50;38.60;;;;;;4998107;28;20026;-63
2023/06/01 12:13:59;;;;;;;11.38;7.53;;;29.50;38.80;;;;;;4998009;28;20040;-63
2023/06/01 12:16:47;;;;;;;10.82;6.78;;;29.50;38.30;;;;;;4997450;28;20105;-63
2023/06/01 12:19:14;;;;;;;9.18;6.30;;;29.40;37.80;;;;;;4997333;28;20041;-63
2023/06/01 12:21:40;;;;;;;15.52;7.70;;;29.40;38.00;;;;;;4997368;28;20463;-63
2023/06/01 12:24:06;;;;;;;9.52;7.10;;;29.40;38.20;;;;;;5012644;28;20033;-63
2023/06/01 12:26:38;;;;;;;8.80;6.07;;;29.40;38.60;;;;;;4997231;28;20027;-63
2023/06/01 12:29:05;;;;;;;9.73;6.38;;;29.50;38.30;;;;;;4997571;28;20077;-63
2023/06/01 12:31:31;;;;;;;10.15;6.40;;;29.40;37.90;;;;;;4997504;28;20027;-63
2023/06/01 12:33:57;;;;;;;9.48;6.35;;;29.10;38.20;;;;;;4997083;28;20084;-63
2023/06/01 12:36:37;;;;;;;11.05;6.43;;;29.00;38.50;;;;;;4997334;28;20097;-63
2023/06/01 12:39:04;;;;;;;9.13;5.90;;;29.00;39.10;;;;;;4996133;28;20422;-63
2023/06/01 12:41:31;;;;;;;8.48;5.60;;;29.10;38.90;;;;;;4997000;28;20098;-63
2023/06/01 12:43:57;;;;;;;9.38;6.03;;;29.20;38.70;;;;;;4996983;28;20030;-63
2023/06/01 12:46:28;;;;;;;9.60;5.80;;;29.40;38.70;;;;;;4997479;28;20023;-63
2023/06/01 12:49:14;;;;;;;9.38;5.72;;;29.50;38.80;;;;;;4995911;28;20026;-63
2023/06/01 12:51:41;;;;;;;8.38;5.40;;;29.50;38.50;;;;;;4996905;28;20054;-64